Time,TemperatureF,DewpointF,PressureIn,WindDirection,WindDirectionDegrees,WindSpeedMPH,WindSpeedGustMPH,Humidity,HourlyPrecipIn,Conditions,Clouds,dailyrainin,SoftwareType,DateUTC
2013-06-23 00:14:00,59.9,59.0,29.98,SW,217,0.0,1.0,97,0.00,,,0.00,weatherlink.com 1.10,2013-06-23 04:14:00,
2013-06-23 00:28:00,59.7,59.0,29.98,SW,217,0.0,0.0,98,0.00,,,0.00,weatherlink.com 1.10,2013-06-23 04:28:00,
2013-06-23 00:43:00,59.3,58.0,29.97,SW,217,0.0,0.0,97,0.00,,,0.00,weatherlink.com 1.10,2013-06-23 04:43:00,
2013-06-23 00:57:00,59.1,59.0,29.96,SW,217,0.0,0.0,98,0.00,,,0.00,weatherlink.com 1.10,2013-06-23 04:57:00,
2013-06-23 01:11:00,58.8,58.0,29.96,SSW,198,0.0,1.0,98,0.00,,,0.00,weatherlink.com 1.10,2013-06-23 05:11:00,
2013-06-23 01:25:00,58.7,58.0,29.94,SSE,152,0.0,1.0,98,0.00,,,0.00,weatherlink.com 1.10,2013-06-23 05:25:00,
2013-06-23 01:40:00,58.6,58.0,29.95,SSE,151,0.0,0.0,98,0.00,,,0.00,weatherlink.com 1.10,2013-06-23 05:40:00,
2013-06-23 01:54:00,58.8,58.0,29.95,South,176,0.0,2.0,98,0.00,,,0.00,weatherlink.com 1.10,2013-06-23 05:54:00,
2013-06-23 02:09:00,59.2,59.0,29.95,SW,224,1.0,2.0,98,0.00,,,0.00,weatherlink.com 1.10,2013-06-23 06:09:00,
2013-06-23 02:23:00,59.4,59.0,29.95,South,170,1.0,4.0,98,0.00,,,0.00,weatherlink.com 1.10,2013-06-23 06:23:00,
2013-06-23 02:37:00,59.5,59.0,29.95,South,188,2.0,3.0,98,0.00,,,0.00,weatherlink.com 1.10,2013-06-23 06:37:00,
2013-06-23 02:52:00,59.5,59.0,29.95,SSW,207,2.0,3.0,98,0.00,,,0.00,weatherlink.com 1.10,2013-06-23 06:52:00,
2013-06-23 03:06:00,59.5,59.0,29.95,SSW,210,0.0,5.0,98,0.00,,,0.00,weatherlink.com 1.10,2013-06-23 07:06:00,
2013-06-23 03:20:00,59.5,59.0,29.94,SSW,213,3.0,4.0,98,0.00,,,0.00,weatherlink.com 1.10,2013-06-23 07:20:00,
2013-06-23 03:35:00,59.5,59.0,29.92,WSW,246,1.0,4.0,98,0.00,,,0.00,weatherlink.com 1.10,2013-06-23 07:35:00,
2013-06-23 03:49:00,59.5,59.0,29.91,SSW,207,0.0,4.0,98,0.00,,,0.00,weatherlink.com 1.10,2013-06-23 07:49:00,
2013-06-23 04:04:00,59.4,59.0,29.91,WSW,246,0.0,3.0,98,0.00,,,0.00,weatherlink.com 1.10,2013-06-23 08:04:00,
2013-06-23 04:18:00,59.3,59.0,29.90,West,274,0.0,2.0,98,0.00,,,0.00,weatherlink.com 1.10,2013-06-23 08:18:00,
2013-06-23 04:32:00,59.2,59.0,29.89,West,270,0.0,1.0,98,0.00,,,0.00,weatherlink.com 1.10,2013-06-23 08:32:00,
2013-06-23 04:47:00,59.2,59.0,29.90,South,190,0.0,1.0,98,0.00,,,0.00,weatherlink.com 1.10,2013-06-23 08:47:00,
2013-06-23 05:01:00,59.1,59.0,29.89,SSE,148,0.0,0.0,98,0.00,,,0.00,weatherlink.com 1.10,2013-06-23 09:01:00,
2013-06-23 05:16:00,58.9,58.0,29.89,ESE,118,0.0,1.0,98,0.00,,,0.00,weatherlink.com 1.10,2013-06-23 09:16:00,
2013-06-23 05:30:00,58.9,58.0,29.90,ESE,118,0.0,1.0,98,0.00,,,0.00,weatherlink.com 1.10,2013-06-23 09:30:00,
2013-06-23 05:44:00,58.9,58.0,29.91,WSW,258,0.0,1.0,98,0.00,,,0.00,weatherlink.com 1.10,2013-06-23 09:44:00,
2013-06-23 05:59:00,59.0,58.0,29.91,SSE,153,0.0,2.0,98,0.00,,,0.00,weatherlink.com 1.10,2013-06-23 09:59:00,
2013-06-23 06:13:00,59.0,58.0,29.91,SSW,198,0.0,1.0,98,0.00,,,0.00,weatherlink.com 1.10,2013-06-23 10:13:00,
2013-06-23 06:28:00,59.0,58.0,29.90,SE,146,1.0,2.0,98,0.00,,,0.00,weatherlink.com 1.10,2013-06-23 10:28:00,
2013-06-23 06:42:00,58.9,58.0,29.90,SSE,152,0.0,2.0,98,0.00,,,0.00,weatherlink.com 1.10,2013-06-23 10:42:00,
2013-06-23 06:56:00,59.2,59.0,29.91,SSW,194,0.0,1.0,98,0.00,,,0.00,weatherlink.com 1.10,2013-06-23 10:56:00,
2013-06-23 07:11:00,59.4,59.0,29.91,South,176,0.0,2.0,98,0.00,,,0.00,weatherlink.com 1.10,2013-06-23 11:11:00,
2013-06-23 07:25:00,59.5,59.0,29.91,South,176,0.0,1.0,98,0.00,,,0.00,weatherlink.com 1.10,2013-06-23 11:25:00,
2013-06-23 07:40:00,59.9,59.0,29.90,South,169,1.0,3.0,98,0.00,,,0.00,weatherlink.com 1.10,2013-06-23 11:40:00,
2013-06-23 07:54:00,60.2,60.0,29.91,SW,214,1.0,3.0,98,0.00,,,0.00,weatherlink.com 1.10,2013-06-23 11:54:00,
2013-06-23 08:08:00,60.5,60.0,29.91,West,259,1.0,3.0,98,0.00,,,0.00,weatherlink.com 1.10,2013-06-23 12:08:00,
2013-06-23 08:23:00,60.5,60.0,29.90,SSW,195,2.0,3.0,98,0.00,,,0.00,weatherlink.com 1.10,2013-06-23 12:23:00,
2013-06-23 08:37:00,61.1,61.0,29.90,SW,214,1.0,3.0,98,0.00,,,0.00,weatherlink.com 1.10,2013-06-23 12:37:00,
2013-06-23 08:52:00,62.0,61.0,29.90,WSW,243,1.0,4.0,98,0.00,,,0.00,weatherlink.com 1.10,2013-06-23 12:52:00,
2013-06-23 09:06:00,62.4,61.0,29.90,WSW,250,0.0,1.0,96,0.00,,,0.00,weatherlink.com 1.10,2013-06-23 13:06:00,
2013-06-23 09:20:00,62.4,61.0,29.90,SSE,158,1.0,1.0,96,0.01,,,0.01,weatherlink.com 1.10,2013-06-23 13:20:00,
2013-06-23 09:35:00,62.5,62.0,29.90,South,188,0.0,2.0,97,0.01,,,0.01,weatherlink.com 1.10,2013-06-23 13:35:00,
2013-06-23 09:49:00,62.8,62.0,29.89,SSE,158,2.0,3.0,97,0.01,,,0.01,weatherlink.com 1.10,2013-06-23 13:49:00,
2013-06-23 10:03:00,63.1,62.0,29.90,SW,231,0.0,2.0,97,0.01,,,0.01,weatherlink.com 1.10,2013-06-23 14:03:00,
2013-06-23 10:18:00,62.9,62.0,29.88,West,272,2.0,4.0,96,0.02,,,0.03,weatherlink.com 1.10,2013-06-23 14:18:00,
2013-06-23 10:32:00,62.8,62.0,29.89,South,176,0.0,2.0,97,0.02,,,0.03,weatherlink.com 1.10,2013-06-23 14:32:00,
2013-06-23 10:46:00,62.8,62.0,29.90,SSW,207,0.0,2.0,97,0.02,,,0.03,weatherlink.com 1.10,2013-06-23 14:46:00,
2013-06-23 11:14:00,63.0,62.0,29.92,WSW,243,1.0,3.0,97,0.00,,,0.03,weatherlink.com 1.10,2013-06-23 15:14:00,
2013-06-23 11:29:00,64.1,63.0,29.91,WNW,292,1.0,3.0,97,0.01,,,0.04,weatherlink.com 1.10,2013-06-23 15:29:00,
2013-06-23 11:43:00,66.0,65.0,29.90,SW,229,1.0,6.0,95,0.01,,,0.04,weatherlink.com 1.10,2013-06-23 15:43:00,
2013-06-23 11:58:00,67.6,66.0,29.90,South,186,3.0,5.0,94,0.01,,,0.04,weatherlink.com 1.10,2013-06-23 15:58:00,
2013-06-23 12:12:00,68.8,66.0,29.89,SSE,165,1.0,5.0,90,0.01,,,0.04,weatherlink.com 1.10,2013-06-23 16:12:00,
2013-06-23 12:26:00,67.7,65.0,29.90,WSW,249,2.0,5.0,91,0.00,,,0.04,weatherlink.com 1.10,2013-06-23 16:26:00,
2013-06-23 12:40:00,67.7,65.0,29.89,South,169,3.0,11.0,91,0.00,,,0.04,weatherlink.com 1.10,2013-06-23 16:40:00,
2013-06-23 12:55:00,68.3,66.0,29.88,SW,235,3.0,8.0,91,0.00,,,0.04,weatherlink.com 1.10,2013-06-23 16:55:00,
2013-06-23 13:09:00,70.1,66.0,29.87,WSW,246,4.0,7.0,88,0.00,,,0.04,weatherlink.com 1.10,2013-06-23 17:09:00,
2013-06-23 13:24:00,71.6,67.0,29.88,SSE,147,3.0,10.0,86,0.00,,,0.04,weatherlink.com 1.10,2013-06-23 17:24:00,
2013-06-23 13:38:00,73.1,68.0,29.87,WNW,291,3.0,7.0,83,0.00,,,0.04,weatherlink.com 1.10,2013-06-23 17:38:00,
2013-06-23 13:52:00,73.9,67.0,29.86,SSW,198,4.0,14.0,80,0.00,,,0.04,weatherlink.com 1.10,2013-06-23 17:52:00,
2013-06-23 14:07:00,74.9,67.0,29.85,SSE,165,2.0,11.0,77,0.00,,,0.04,weatherlink.com 1.10,2013-06-23 18:07:00,
2013-06-23 14:21:00,75.8,68.0,29.84,SW,214,2.0,11.0,77,0.00,,,0.04,weatherlink.com 1.10,2013-06-23 18:21:00,
2013-06-23 14:36:00,77.2,68.0,29.83,SW,214,3.0,13.0,74,0.00,,,0.04,weatherlink.com 1.10,2013-06-23 18:36:00,
2013-06-23 14:50:00,78.5,69.0,29.82,SSW,201,4.0,10.0,72,0.00,,,0.04,weatherlink.com 1.10,2013-06-23 18:50:00,
2013-06-23 15:04:00,79.3,68.0,29.81,SSE,157,5.0,9.0,69,0.00,,,0.04,weatherlink.com 1.10,2013-06-23 19:04:00,
2013-06-23 15:19:00,79.2,67.0,29.80,SSE,167,7.0,11.0,67,0.00,,,0.04,weatherlink.com 1.10,2013-06-23 19:19:00,
2013-06-23 15:33:00,79.9,68.0,29.79,South,175,5.0,14.0,67,0.00,,,0.04,weatherlink.com 1.10,2013-06-23 19:33:00,
2013-06-23 15:48:00,80.4,68.0,29.79,SE,129,4.0,13.0,66,0.00,,,0.04,weatherlink.com 1.10,2013-06-23 19:48:00,
2013-06-23 16:02:00,80.5,67.0,29.78,SE,135,8.0,17.0,63,0.00,,,0.04,weatherlink.com 1.10,2013-06-23 20:02:00,
2013-06-23 16:16:00,81.1,66.0,29.79,SW,228,5.0,9.0,61,0.00,,,0.04,weatherlink.com 1.10,2013-06-23 20:16:00,
2013-06-23 16:31:00,80.9,66.0,29.79,SSE,166,5.0,12.0,61,0.00,,,0.04,weatherlink.com 1.10,2013-06-23 20:31:00,
2013-06-23 16:45:00,79.9,66.0,29.79,WSW,238,3.0,15.0,62,0.00,,,0.04,weatherlink.com 1.10,2013-06-23 20:45:00,
2013-06-23 17:00:00,80.4,67.0,29.79,WSW,251,2.0,7.0,63,0.00,,,0.04,weatherlink.com 1.10,2013-06-23 21:00:00,
2013-06-23 17:14:00,80.3,67.0,29.79,SSW,208,3.0,9.0,64,0.00,,,0.04,weatherlink.com 1.10,2013-06-23 21:14:00,
2013-06-23 17:28:00,79.7,67.0,29.79,NNE,22,3.0,8.0,65,0.00,,,0.04,weatherlink.com 1.10,2013-06-23 21:28:00,
2013-06-23 17:43:00,79.7,67.0,29.79,SW,226,4.0,10.0,66,0.00,,,0.04,weatherlink.com 1.10,2013-06-23 21:43:00,
2013-06-23 17:57:00,79.5,68.0,29.78,WSW,248,2.0,10.0,67,0.00,,,0.04,weatherlink.com 1.10,2013-06-23 21:57:00,
2013-06-23 18:12:00,79.1,68.0,29.78,SW,217,5.0,9.0,68,0.00,,,0.04,weatherlink.com 1.10,2013-06-23 22:12:00,
2013-06-23 18:26:00,78.8,68.0,29.77,South,177,4.0,10.0,70,0.00,,,0.04,weatherlink.com 1.10,2013-06-23 22:26:00,
2013-06-23 18:40:00,77.7,67.0,29.77,SW,227,3.0,9.0,70,0.00,,,0.04,weatherlink.com 1.10,2013-06-23 22:40:00,
2013-06-23 18:55:00,77.9,67.0,29.77,SSW,196,5.0,9.0,69,0.00,,,0.04,weatherlink.com 1.10,2013-06-23 22:55:00,
2013-06-23 19:09:00,77.0,67.0,29.78,SSW,205,7.0,7.0,71,0.00,,,0.04,weatherlink.com 1.10,2013-06-23 23:09:00,
2013-06-23 19:24:00,75.2,66.0,29.78,SSE,164,1.0,6.0,74,0.00,,,0.04,weatherlink.com 1.10,2013-06-23 23:24:00,
2013-06-23 19:38:00,73.9,66.0,29.79,SW,231,1.0,8.0,76,0.00,,,0.04,weatherlink.com 1.10,2013-06-23 23:38:00,
2013-06-23 19:52:00,73.1,66.0,29.80,SW,235,0.0,3.0,79,0.00,,,0.04,weatherlink.com 1.10,2013-06-23 23:52:00,
2013-06-23 20:06:00,72.6,66.0,29.79,SSW,198,1.0,4.0,79,0.00,,,0.04,weatherlink.com 1.10,2013-06-24 00:06:00,
2013-06-23 20:21:00,71.6,65.0,29.79,South,191,1.0,3.0,80,0.00,,,0.04,weatherlink.com 1.10,2013-06-24 00:21:00,
2013-06-23 20:35:00,71.0,65.0,29.79,WSW,238,1.0,3.0,82,0.00,,,0.04,weatherlink.com 1.10,2013-06-24 00:35:00,
2013-06-23 20:50:00,70.7,66.0,29.80,WSW,248,0.0,3.0,84,0.00,,,0.04,weatherlink.com 1.10,2013-06-24 00:50:00,
2013-06-23 21:04:00,69.1,66.0,29.79,SW,226,0.0,3.0,91,0.15,,,0.19,weatherlink.com 1.10,2013-06-24 01:04:00,
2013-06-23 21:19:00,68.1,66.0,29.79,SSW,198,2.0,2.0,93,0.16,,,0.20,weatherlink.com 1.10,2013-06-24 01:19:00,
2013-06-23 21:33:00,67.5,66.0,29.80,SSW,194,0.0,2.0,94,0.16,,,0.20,weatherlink.com 1.10,2013-06-24 01:33:00,
2013-06-23 21:47:00,67.1,65.0,29.80,SW,229,0.0,1.0,94,0.16,,,0.20,weatherlink.com 1.10,2013-06-24 01:47:00,
2013-06-23 22:01:00,66.4,65.0,29.80,South,181,0.0,2.0,95,0.02,,,0.20,weatherlink.com 1.10,2013-06-24 02:01:00,
2013-06-23 22:15:00,65.8,64.0,29.80,SW,224,1.0,2.0,95,0.00,,,0.20,weatherlink.com 1.10,2013-06-24 02:15:00,
2013-06-23 22:29:00,65.3,64.0,29.80,SW,219,1.0,2.0,95,0.00,,,0.20,weatherlink.com 1.10,2013-06-24 02:29:00,
2013-06-23 22:43:00,64.7,63.0,29.80,SW,228,0.0,4.0,95,0.00,,,0.20,weatherlink.com 1.10,2013-06-24 02:43:00,
2013-06-23 22:57:00,64.2,63.0,29.80,SSW,204,0.0,2.0,95,0.00,,,0.20,weatherlink.com 1.10,2013-06-24 02:57:00,
2013-06-23 23:11:00,63.8,62.0,29.80,SW,228,1.0,2.0,95,0.00,,,0.20,weatherlink.com 1.10,2013-06-24 03:11:00,
2013-06-23 23:26:00,63.3,62.0,29.81,SW,221,0.0,2.0,95,0.00,,,0.20,weatherlink.com 1.10,2013-06-24 03:26:00,
2013-06-23 23:40:00,62.8,62.0,29.82,SW,231,0.0,1.0,96,0.00,,,0.20,weatherlink.com 1.10,2013-06-24 03:40:00,
2013-06-23 23:55:00,62.5,61.0,29.82,SW,221,1.0,2.0,96,0.00,,,0.20,weatherlink.com 1.10,2013-06-24 03:55:00,